sensor_id;sensor_type;location;lat;lon;timestamp;temperature;humidity
10386;DHT22;34307;51.332;12.334;2022-07-01T00:00:15;22.80;99.90
10386;DHT22;34307;51.332;12.334;2022-07-01T00:02:47;22.90;99.90
10386;DHT22;34307;51.332;12.334;2022-07-01T00:05:27;22.90;99.90
10386;DHT22;34307;51.332;12.334;2022-07-01T00:08:06;22.80;99.90
10386;DHT22;34307;51.332;12.334;2022-07-01T00:10:40;22.80;99.90
10386;DHT22;34307;51.332;12.334;2022-07-01T00:13:15;22.80;99.90
10386;DHT22;34307;51.332;12.334;2022-07-01T00:15:56;22.80;99.90
10386;DHT22;34307;51.332;12.334;2022-07-01T00:18:32;22.70;99.90
10386;DHT22;34307;51.332;12.334;2022-07-01T00:21:05;22.70;99.90
10386;DHT22;34307;51.332;12.334;2022-07-01T00:23:47;22.70;99.90
10386;DHT22;34307;51.332;12.334;2022-07-01T00:26:21;22.60;99.90
10386;DHT22;34307;51.332;12.334;2022-07-01T00:28:54;22.60;99.90
10386;DHT22;34307;51.332;12.334;2022-07-01T00:31:49;22.60;99.90
10386;DHT22;34307;51.332;12.334;2022-07-01T00:34:32;22.60;99.90
10386;DHT22;34307;51.332;12.334;2022-07-01T00:37:21;22.50;99.90
10386;DHT22;34307;51.332;12.334;2022-07-01T00:40:11;22.50;99.90
10386;DHT22;34307;51.332;12.334;2022-07-01T00:42:47;22.40;99.90
10386;DHT22;34307;51.332;12.334;2022-07-01T00:45:59;22.40;99.90
10386;DHT22;34307;51.332;12.334;2022-07-01T00:48:48;22.40;99.90
10386;DHT22;34307;51.332;12.334;2022-07-01T00:51:32;22.40;99.90
10386;DHT22;34307;51.332;12.334;2022-07-01T00:54:14;22.30;99.90
10386;DHT22;34307;51.332;12.334;2022-07-01T00:57:10;22.30;99.90
10386;DHT22;34307;51.332;12.334;2022-07-01T00:59:58;22.30;99.90
10386;DHT22;34307;51.332;12.334;2022-07-01T01:02:45;22.30;99.90
10386;DHT22;34307;51.332;12.334;2022-07-01T01:05:38;22.30;99.90
10386;DHT22;34307;51.332;12.334;2022-07-01T01:08:11;22.30;99.90
10386;DHT22;34307;51.332;12.334;2022-07-01T01:10:48;22.30;99.90
10386;DHT22;34307;51.332;12.334;2022-07-01T01:13:35;22.20;99.90
10386;DHT22;34307;51.332;12.334;2022-07-01T01:16:28;22.30;99.90
10386;DHT22;34307;51.332;12.334;2022-07-01T01:19:23;22.20;99.90
10386;DHT22;34307;51.332;12.334;2022-07-01T01:22:14;22.20;99.90
10386;DHT22;34307;51.332;12.334;2022-07-01T01:25:06;22.20;99.90
10386;DHT22;34307;51.332;12.334;2022-07-01T01:27:41;22.10;99.90
10386;DHT22;34307;51.332;12.334;2022-07-01T01:30:11;22.10;99.90
10386;DHT22;34307;51.332;12.334;2022-07-01T01:32:44;22.10;99.90
10386;DHT22;34307;51.332;12.334;2022-07-01T01:35:17;22.10;99.90
10386;DHT22;34307;51.332;12.334;2022-07-01T01:37:59;22.10;99.90
10386;DHT22;34307;51.332;12.334;2022-07-01T01:40:35;22.10;99.90
10386;DHT22;34307;51.332;12.334;2022-07-01T01:46:17;22.10;99.90
10386;DHT22;34307;51.332;12.334;2022-07-01T01:48:52;22.10;99.90
10386;DHT22;34307;51.332;12.334;2022-07-01T01:51:34;22.20;99.90
10386;DHT22;34307;51.332;12.334;2022-07-01T01:54:11;22.20;99.90
10386;DHT22;34307;51.332;12.334;2022-07-01T01:56:47;22.30;99.90
10386;DHT22;34307;51.332;12.334;2022-07-01T02:02:29;22.30;99.90
10386;DHT22;34307;51.332;12.334;2022-07-01T02:05:11;22.30;99.90
10386;DHT22;34307;51.332;12.334;2022-07-01T02:07:52;22.30;99.90
10386;DHT22;34307;51.332;12.334;2022-07-01T02:10:35;22.30;99.90
10386;DHT22;34307;51.332;12.334;2022-07-01T02:13:13;22.30;99.90
10386;DHT22;34307;51.332;12.334;2022-07-01T02:15:45;22.40;99.90
10386;DHT22;34307;51.332;12.334;2022-07-01T02:18:31;22.30;99.90
10386;DHT22;34307;51.332;12.334;2022-07-01T02:21:09;22.30;99.90
10386;DHT22;34307;51.332;12.334;2022-07-01T02:23:45;22.40;99.90
10386;DHT22;34307;51.332;12.334;2022-07-01T02:26:21;22.40;99.90
10386;DHT22;34307;51.332;12.334;2022-07-01T02:29:00;22.40;99.90
10386;DHT22;34307;51.332;12.334;2022-07-01T02:31:49;22.40;99.90
10386;DHT22;34307;51.332;12.334;2022-07-01T02:34:21;22.30;99.90
10386;DHT22;34307;51.332;12.334;2022-07-01T02:36:54;22.20;99.90
10386;DHT22;34307;51.332;12.334;2022-07-01T02:39:24;22.10;99.90
10386;DHT22;34307;51.332;12.334;2022-07-01T02:42:02;22.10;99.90
10386;DHT22;34307;51.332;12.334;2022-07-01T02:44:54;22.10;99.90
10386;DHT22;34307;51.332;12.334;2022-07-01T02:47:31;22.00;99.90
10386;DHT22;34307;51.332;12.334;2022-07-01T02:50:05;21.90;99.90
10386;DHT22;34307;51.332;12.334;2022-07-01T02:52:54;21.90;99.90
10386;DHT22;34307;51.332;12.334;2022-07-01T02:55:32;21.80;99.90
10386;DHT22;34307;51.332;12.334;2022-07-01T02:58:02;21.80;99.90
10386;DHT22;34307;51.332;12.334;2022-07-01T03:00:36;21.70;99.90
10386;DHT22;34307;51.332;12.334;2022-07-01T03:03:17;21.70;99.90
10386;DHT22;34307;51.332;12.334;2022-07-01T03:05:48;21.80;99.90
10386;DHT22;34307;51.332;12.334;2022-07-01T03:08:16;21.90;99.90
10386;DHT22;34307;51.332;12.334;2022-07-01T03:10:44;21.70;99.90
10386;DHT22;34307;51.332;12.334;2022-07-01T03:13:13;21.60;99.90
10386;DHT22;34307;51.332;12.334;2022-07-01T03:15:41;21.60;99.90
10386;DHT22;34307;51.332;12.334;2022-07-01T03:18:09;21.70;99.90
10386;DHT22;34307;51.332;12.334;2022-07-01T03:20:38;21.60;99.90
10386;DHT22;34307;51.332;12.334;2022-07-01T03:23:06;21.60;99.90
10386;DHT22;34307;51.332;12.334;2022-07-01T03:25:34;21.60;99.90
10386;DHT22;34307;51.332;12.334;2022-07-01T03:28:03;21.50;99.90
10386;DHT22;34307;51.332;12.334;2022-07-01T03:30:32;21.50;99.90
10386;DHT22;34307;51.332;12.334;2022-07-01T03:33:01;21.40;99.90
10386;DHT22;34307;51.332;12.334;2022-07-01T03:35:29;21.40;99.90
10386;DHT22;34307;51.332;12.334;2022-07-01T03:38:06;21.30;99.90
10386;DHT22;34307;51.332;12.334;2022-07-01T03:40:35;21.20;99.90
10386;DHT22;34307;51.332;12.334;2022-07-01T03:43:04;21.20;99.90
10386;DHT22;34307;51.332;12.334;2022-07-01T03:45:33;21.10;99.90
10386;DHT22;34307;51.332;12.334;2022-07-01T03:48:02;21.20;99.90
10386;DHT22;34307;51.332;12.334;2022-07-01T03:50:30;21.20;99.90
10386;DHT22;34307;51.332;12.334;2022-07-01T03:52:58;21.10;99.90
10386;DHT22;34307;51.332;12.334;2022-07-01T03:55:44;21.20;99.90
10386;DHT22;34307;51.332;12.334;2022-07-01T03:58:12;21.10;99.90
10386;DHT22;34307;51.332;12.334;2022-07-01T04:00:41;21.10;99.90
10386;DHT22;34307;51.332;12.334;2022-07-01T04:03:09;21.10;99.90
10386;DHT22;34307;51.332;12.334;2022-07-01T04:05:38;21.00;99.90
10386;DHT22;34307;51.332;12.334;2022-07-01T04:08:08;21.10;99.90
10386;DHT22;34307;51.332;12.334;2022-07-01T04:10:39;21.10;99.90
10386;DHT22;34307;51.332;12.334;2022-07-01T04:13:08;21.10;99.90
10386;DHT22;34307;51.332;12.334;2022-07-01T04:15:58;21.10;99.90
10386;DHT22;34307;51.332;12.334;2022-07-01T04:18:27;21.00;99.90
10386;DHT22;34307;51.332;12.334;2022-07-01T04:20:55;21.00;99.90
10386;DHT22;34307;51.332;12.334;2022-07-01T04:23:41;20.90;99.90
10386;DHT22;34307;51.332;12.334;2022-07-01T04:26:09;20.80;99.90
10386;DHT22;34307;51.332;12.334;2022-07-01T04:28:57;20.80;99.90
10386;DHT22;34307;51.332;12.334;2022-07-01T04:31:27;20.60;99.90
10386;DHT22;34307;51.332;12.334;2022-07-01T04:33:55;20.70;99.90
10386;DHT22;34307;51.332;12.334;2022-07-01T04:36:24;20.80;99.90
10386;DHT22;34307;51.332;12.334;2022-07-01T04:38:52;20.70;99.90
10386;DHT22;34307;51.332;12.334;2022-07-01T04:41:21;20.60;99.90
10386;DHT22;34307;51.332;12.334;2022-07-01T04:44:07;20.50;99.90
10386;DHT22;34307;51.332;12.334;2022-07-01T04:46:36;20.40;99.90
10386;DHT22;34307;51.332;12.334;2022-07-01T04:49:05;20.40;99.90
10386;DHT22;34307;51.332;12.334;2022-07-01T04:51:33;20.40;99.90
10386;DHT22;34307;51.332;12.334;2022-07-01T04:54:03;20.20;99.90
10386;DHT22;34307;51.332;12.334;2022-07-01T04:56:32;20.20;99.90
10386;DHT22;34307;51.332;12.334;2022-07-01T04:59:06;20.10;99.90
10386;DHT22;34307;51.332;12.334;2022-07-01T05:01:34;20.00;99.90
10386;DHT22;34307;51.332;12.334;2022-07-01T05:04:03;20.00;99.90
10386;DHT22;34307;51.332;12.334;2022-07-01T05:06:32;20.00;99.90
10386;DHT22;34307;51.332;12.334;2022-07-01T05:09:00;20.10;99.90
10386;DHT22;34307;51.332;12.334;2022-07-01T05:11:29;20.10;99.90
10386;DHT22;34307;51.332;12.334;2022-07-01T05:13:57;20.00;99.90
10386;DHT22;34307;51.332;12.334;2022-07-01T05:16:28;19.90;99.90
10386;DHT22;34307;51.332;12.334;2022-07-01T05:18:56;19.80;99.90
10386;DHT22;34307;51.332;12.334;2022-07-01T05:21:44;19.50;99.90
10386;DHT22;34307;51.332;12.334;2022-07-01T05:24:25;19.10;99.90
10386;DHT22;34307;51.332;12.334;2022-07-01T05:26:57;19.00;99.90
10386;DHT22;34307;51.332;12.334;2022-07-01T05:29:27;18.90;99.90
10386;DHT22;34307;51.332;12.334;2022-07-01T05:32:01;18.80;99.90
10386;DHT22;34307;51.332;12.334;2022-07-01T05:34:32;18.70;99.90
10386;DHT22;34307;51.332;12.334;2022-07-01T05:37:36;18.50;99.90
10386;DHT22;34307;51.332;12.334;2022-07-01T05:40:12;18.50;99.90
10386;DHT22;34307;51.332;12.334;2022-07-01T05:42:45;18.50;99.90
10386;DHT22;34307;51.332;12.334;2022-07-01T05:45:13;18.40;99.90
10386;DHT22;34307;51.332;12.334;2022-07-01T05:47:43;18.40;99.90
10386;DHT22;34307;51.332;12.334;2022-07-01T05:50:13;18.40;99.90
10386;DHT22;34307;51.332;12.334;2022-07-01T05:52:53;18.40;99.90
10386;DHT22;34307;51.332;12.334;2022-07-01T05:55:32;18.50;99.90
10386;DHT22;34307;51.332;12.334;2022-07-01T05:58:06;18.40;99.90
10386;DHT22;34307;51.332;12.334;2022-07-01T06:00:56;18.50;99.90
10386;DHT22;34307;51.332;12.334;2022-07-01T06:03:40;18.50;99.90
10386;DHT22;34307;51.332;12.334;2022-07-01T06:06:52;18.50;99.90
10386;DHT22;34307;51.332;12.334;2022-07-01T06:09:26;18.60;99.90
10386;DHT22;34307;51.332;12.334;2022-07-01T06:12:22;18.70;99.90
10386;DHT22;34307;51.332;12.334;2022-07-01T06:18:05;18.50;99.90
10386;DHT22;34307;51.332;12.334;2022-07-01T06:20:55;18.50;99.90
10386;DHT22;34307;51.332;12.334;2022-07-01T06:23:32;18.60;99.90
10386;DHT22;34307;51.332;12.334;2022-07-01T06:26:10;18.70;99.90
10386;DHT22;34307;51.332;12.334;2022-07-01T06:28:49;18.80;99.90
10386;DHT22;34307;51.332;12.334;2022-07-01T06:31:22;18.70;99.90
10386;DHT22;34307;51.332;12.334;2022-07-01T06:33:54;18.70;99.90
10386;DHT22;34307;51.332;12.334;2022-07-01T06:36:33;18.70;99.90
10386;DHT22;34307;51.332;12.334;2022-07-01T06:39:01;18.60;99.90
10386;DHT22;34307;51.332;12.334;2022-07-01T06:41:31;18.60;99.90
10386;DHT22;34307;51.332;12.334;2022-07-01T06:44:02;18.50;99.90
10386;DHT22;34307;51.332;12.334;2022-07-01T06:46:33;18.70;99.90
10386;DHT22;34307;51.332;12.334;2022-07-01T06:49:06;18.60;99.90
10386;DHT22;34307;51.332;12.334;2022-07-01T06:51:38;18.30;99.90
10386;DHT22;34307;51.332;12.334;2022-07-01T06:54:11;18.20;99.90
10386;DHT22;34307;51.332;12.334;2022-07-01T06:56:42;18.20;99.90
10386;DHT22;34307;51.332;12.334;2022-07-01T06:59:10;18.30;99.90
10386;DHT22;34307;51.332;12.334;2022-07-01T07:01:41;18.20;99.90
10386;DHT22;34307;51.332;12.334;2022-07-01T07:04:12;18.20;99.90
10386;DHT22;34307;51.332;12.334;2022-07-01T07:06:42;18.20;99.90
10386;DHT22;34307;51.332;12.334;2022-07-01T07:09:13;18.20;99.90
10386;DHT22;34307;51.332;12.334;2022-07-01T07:11:53;18.20;99.90
10386;DHT22;34307;51.332;12.334;2022-07-01T07:15:11;18.20;99.90
10386;DHT22;34307;51.332;12.334;2022-07-01T07:17:54;18.10;99.90
10386;DHT22;34307;51.332;12.334;2022-07-01T07:20:37;18.10;99.90
10386;DHT22;34307;51.332;12.334;2022-07-01T07:23:15;18.00;99.90
10386;DHT22;34307;51.332;12.334;2022-07-01T07:25:58;18.10;99.90
10386;DHT22;34307;51.332;12.334;2022-07-01T07:28:40;18.00;99.90
10386;DHT22;34307;51.332;12.334;2022-07-01T07:31:35;18.10;99.90
10386;DHT22;34307;51.332;12.334;2022-07-01T07:34:13;17.90;99.90
10386;DHT22;34307;51.332;12.334;2022-07-01T07:36:59;17.90;99.90
10386;DHT22;34307;51.332;12.334;2022-07-01T07:39:40;17.70;99.90
10386;DHT22;34307;51.332;12.334;2022-07-01T07:42:15;17.80;99.90
10386;DHT22;34307;51.332;12.334;2022-07-01T07:44:46;17.80;99.90
10386;DHT22;34307;51.332;12.334;2022-07-01T07:47:19;17.80;99.90
10386;DHT22;34307;51.332;12.334;2022-07-01T07:49:51;17.70;99.90
10386;DHT22;34307;51.332;12.334;2022-07-01T07:52:30;17.60;99.90
10386;DHT22;34307;51.332;12.334;2022-07-01T07:55:13;17.40;99.90
10386;DHT22;34307;51.332;12.334;2022-07-01T07:57:49;17.30;99.90
10386;DHT22;34307;51.332;12.334;2022-07-01T08:00:25;17.30;99.90
10386;DHT22;34307;51.332;12.334;2022-07-01T08:03:19;17.10;99.90
10386;DHT22;34307;51.332;12.334;2022-07-01T08:05:47;16.80;99.90
10386;DHT22;34307;51.332;12.334;2022-07-01T08:08:15;16.70;99.90
10386;DHT22;34307;51.332;12.334;2022-07-01T08:10:49;16.50;99.90
10386;DHT22;34307;51.332;12.334;2022-07-01T08:13:17;16.50;99.90
10386;DHT22;34307;51.332;12.334;2022-07-01T08:15:47;16.40;99.90
10386;DHT22;34307;51.332;12.334;2022-07-01T08:18:18;16.40;99.90
10386;DHT22;34307;51.332;12.334;2022-07-01T08:20:49;16.30;99.90
10386;DHT22;34307;51.332;12.334;2022-07-01T08:23:19;16.20;99.90
10386;DHT22;34307;51.332;12.334;2022-07-01T08:25:48;16.20;99.90
10386;DHT22;34307;51.332;12.334;2022-07-01T08:28:17;16.10;99.90
10386;DHT22;34307;51.332;12.334;2022-07-01T08:30:46;16.20;99.90
10386;DHT22;34307;51.332;12.334;2022-07-01T08:33:15;16.20;99.90
10386;DHT22;34307;51.332;12.334;2022-07-01T08:35:43;16.10;99.90
10386;DHT22;34307;51.332;12.334;2022-07-01T08:38:11;16.10;99.90
10386;DHT22;34307;51.332;12.334;2022-07-01T08:40:40;16.20;99.90
10386;DHT22;34307;51.332;12.334;2022-07-01T08:43:08;16.10;99.90
10386;DHT22;34307;51.332;12.334;2022-07-01T08:45:36;16.00;99.90
10386;DHT22;34307;51.332;12.334;2022-07-01T08:48:07;15.90;99.90
10386;DHT22;34307;51.332;12.334;2022-07-01T08:50:36;15.80;99.90
10386;DHT22;34307;51.332;12.334;2022-07-01T08:53:05;15.80;99.90
10386;DHT22;34307;51.332;12.334;2022-07-01T08:55:33;15.80;99.90
10386;DHT22;34307;51.332;12.334;2022-07-01T08:58:24;15.90;99.90
10386;DHT22;34307;51.332;12.334;2022-07-01T09:00:53;15.90;99.90
10386;DHT22;34307;51.332;12.334;2022-07-01T09:03:40;15.90;99.90
10386;DHT22;34307;51.332;12.334;2022-07-01T09:06:13;15.70;99.90
10386;DHT22;34307;51.332;12.334;2022-07-01T09:08:42;15.60;99.90
10386;DHT22;34307;51.332;12.334;2022-07-01T09:11:11;15.60;99.90
10386;DHT22;34307;51.332;12.334;2022-07-01T09:13:43;15.60;99.90
10386;DHT22;34307;51.332;12.334;2022-07-01T09:16:12;15.60;99.90
10386;DHT22;34307;51.332;12.334;2022-07-01T09:19:00;15.60;99.90
10386;DHT22;34307;51.332;12.334;2022-07-01T09:21:30;15.70;99.90
10386;DHT22;34307;51.332;12.334;2022-07-01T09:24:02;15.70;99.90
10386;DHT22;34307;51.332;12.334;2022-07-01T09:26:31;15.70;99.90
10386;DHT22;34307;51.332;12.334;2022-07-01T09:29:00;15.70;99.90
10386;DHT22;34307;51.332;12.334;2022-07-01T09:31:33;15.70;99.90
10386;DHT22;34307;51.332;12.334;2022-07-01T09:34:05;15.70;99.90
10386;DHT22;34307;51.332;12.334;2022-07-01T09:36:37;15.80;99.90
10386;DHT22;34307;51.332;12.334;2022-07-01T09:39:07;15.70;99.90
10386;DHT22;34307;51.332;12.334;2022-07-01T09:41:57;15.70;99.90
10386;DHT22;34307;51.332;12.334;2022-07-01T09:44:28;15.70;99.90
10386;DHT22;34307;51.332;12.334;2022-07-01T09:46:57;15.80;99.90
10386;DHT22;34307;51.332;12.334;2022-07-01T09:49:28;15.70;99.90
10386;DHT22;34307;51.332;12.334;2022-07-01T09:51:57;15.70;99.90
10386;DHT22;34307;51.332;12.334;2022-07-01T09:54:25;15.70;99.90
10386;DHT22;34307;51.332;12.334;2022-07-01T09:57:44;15.60;99.90
10386;DHT22;34307;51.332;12.334;2022-07-01T10:03:52;15.60;99.90
10386;DHT22;34307;51.332;12.334;2022-07-01T10:10:51;15.50;99.90
10386;DHT22;34307;51.332;12.334;2022-07-01T10:14:27;15.40;99.90
10386;DHT22;34307;51.332;12.334;2022-07-01T10:20:45;15.20;99.90
10386;DHT22;34307;51.332;12.334;2022-07-01T10:29:04;15.40;99.90
10386;DHT22;34307;51.332;12.334;2022-07-01T10:42:14;15.60;99.90
10386;DHT22;34307;51.332;12.334;2022-07-01T10:45:09;15.60;99.90
10386;DHT22;34307;51.332;12.334;2022-07-01T10:47:43;15.70;99.90
10386;DHT22;34307;51.332;12.334;2022-07-01T10:50:12;15.90;99.90
10386;DHT22;34307;51.332;12.334;2022-07-01T10:52:59;16.00;99.90
10386;DHT22;34307;51.332;12.334;2022-07-01T10:55:38;16.20;99.90
10386;DHT22;34307;51.332;12.334;2022-07-01T10:58:07;16.40;99.90
10386;DHT22;34307;51.332;12.334;2022-07-01T11:00:40;16.30;99.90
10386;DHT22;34307;51.332;12.334;2022-07-01T11:03:15;16.40;99.90
10386;DHT22;34307;51.332;12.334;2022-07-01T11:06:07;16.40;99.90
10386;DHT22;34307;51.332;12.334;2022-07-01T11:15:07;16.30;99.90
10386;DHT22;34307;51.332;12.334;2022-07-01T11:17:47;16.00;99.90
10386;DHT22;34307;51.332;12.334;2022-07-01T11:20:16;16.00;99.90
10386;DHT22;34307;51.332;12.334;2022-07-01T11:24:11;16.00;99.90
10386;DHT22;34307;51.332;12.334;2022-07-01T11:26:23;16.10;99.90
10386;DHT22;34307;51.332;12.334;2022-07-01T11:29:00;16.00;99.90
10386;DHT22;34307;51.332;12.334;2022-07-01T11:31:29;15.90;99.90
10386;DHT22;34307;51.332;12.334;2022-07-01T11:34:27;15.90;99.90
10386;DHT22;34307;51.332;12.334;2022-07-01T11:36:58;15.90;99.90
10386;DHT22;34307;51.332;12.334;2022-07-01T11:40:11;15.90;99.90
10386;DHT22;34307;51.332;12.334;2022-07-01T11:42:49;15.80;99.90
10386;DHT22;34307;51.332;12.334;2022-07-01T11:45:27;15.90;99.90
10386;DHT22;34307;51.332;12.334;2022-07-01T11:47:58;15.90;99.90
10386;DHT22;34307;51.332;12.334;2022-07-01T11:50:32;15.90;99.90
10386;DHT22;34307;51.332;12.334;2022-07-01T11:53:00;15.90;99.90
10386;DHT22;34307;51.332;12.334;2022-07-01T11:55:30;15.90;99.90
10386;DHT22;34307;51.332;12.334;2022-07-01T11:58:03;16.00;99.90
10386;DHT22;34307;51.332;12.334;2022-07-01T12:00:33;15.90;99.90
10386;DHT22;34307;51.332;12.334;2022-07-01T12:03:02;15.90;99.90
10386;DHT22;34307;51.332;12.334;2022-07-01T12:05:32;15.90;99.90
10386;DHT22;34307;51.332;12.334;2022-07-01T12:08:04;15.90;99.90
10386;DHT22;34307;51.332;12.334;2022-07-01T12:10:32;15.80;99.90
10386;DHT22;34307;51.332;12.334;2022-07-01T12:13:07;15.80;99.90
10386;DHT22;34307;51.332;12.334;2022-07-01T12:15:47;15.80;99.90
10386;DHT22;34307;51.332;12.334;2022-07-01T12:18:17;15.90;99.90
10386;DHT22;34307;51.332;12.334;2022-07-01T12:20:52;15.90;99.90
10386;DHT22;34307;51.332;12.334;2022-07-01T12:23:20;15.90;99.90
10386;DHT22;34307;51.332;12.334;2022-07-01T12:25:52;15.90;99.90
10386;DHT22;34307;51.332;12.334;2022-07-01T12:28:28;16.00;99.90
10386;DHT22;34307;51.332;12.334;2022-07-01T12:31:46;16.10;99.90
10386;DHT22;34307;51.332;12.334;2022-07-01T12:34:36;16.10;99.90
10386;DHT22;34307;51.332;12.334;2022-07-01T12:37:09;16.10;99.90
10386;DHT22;34307;51.332;12.334;2022-07-01T12:39:43;16.20;99.90
10386;DHT22;34307;51.332;12.334;2022-07-01T12:42:20;16.30;99.90
10386;DHT22;34307;51.332;12.334;2022-07-01T12:44:49;16.30;99.90
10386;DHT22;34307;51.332;12.334;2022-07-01T12:47:19;16.40;99.90
10386;DHT22;34307;51.332;12.334;2022-07-01T12:49:47;16.30;99.90
10386;DHT22;34307;51.332;12.334;2022-07-01T12:52:25;16.20;99.90
10386;DHT22;34307;51.332;12.334;2022-07-01T12:54:56;16.20;99.90
10386;DHT22;34307;51.332;12.334;2022-07-01T12:57:32;16.10;99.90
10386;DHT22;34307;51.332;12.334;2022-07-01T13:00:05;16.10;99.90
10386;DHT22;34307;51.332;12.334;2022-07-01T13:02:37;15.90;99.90
10386;DHT22;34307;51.332;12.334;2022-07-01T13:05:10;15.80;99.90
10386;DHT22;34307;51.332;12.334;2022-07-01T13:07:44;15.80;99.90
10386;DHT22;34307;51.332;12.334;2022-07-01T13:10:15;15.60;99.90
10386;DHT22;34307;51.332;12.334;2022-07-01T13:12:45;15.50;99.90
10386;DHT22;34307;51.332;12.334;2022-07-01T13:15:15;15.50;99.90
10386;DHT22;34307;51.332;12.334;2022-07-01T13:17:47;15.50;99.90
10386;DHT22;34307;51.332;12.334;2022-07-01T13:20:16;15.60;99.90
10386;DHT22;34307;51.332;12.334;2022-07-01T13:22:48;15.60;99.90
10386;DHT22;34307;51.332;12.334;2022-07-01T13:25:17;15.60;99.90
10386;DHT22;34307;51.332;12.334;2022-07-01T13:27:45;15.80;99.90
10386;DHT22;34307;51.332;12.334;2022-07-01T13:30:14;15.80;99.90
10386;DHT22;34307;51.332;12.334;2022-07-01T13:32:42;15.90;99.90
10386;DHT22;34307;51.332;12.334;2022-07-01T13:35:14;16.00;99.90
10386;DHT22;34307;51.332;12.334;2022-07-01T13:37:42;16.10;99.90
10386;DHT22;34307;51.332;12.334;2022-07-01T13:40:12;16.10;99.90
10386;DHT22;34307;51.332;12.334;2022-07-01T13:42:41;15.90;99.90
10386;DHT22;34307;51.332;12.334;2022-07-01T13:45:11;16.10;99.90
10386;DHT22;34307;51.332;12.334;2022-07-01T13:47:40;16.30;99.90
10386;DHT22;34307;51.332;12.334;2022-07-01T13:50:10;16.40;99.90
10386;DHT22;34307;51.332;12.334;2022-07-01T13:52:39;16.40;99.90
10386;DHT22;34307;51.332;12.334;2022-07-01T13:55:14;16.20;99.90
10386;DHT22;34307;51.332;12.334;2022-07-01T13:57:43;16.20;99.90
10386;DHT22;34307;51.332;12.334;2022-07-01T14:00:15;16.10;99.90
10386;DHT22;34307;51.332;12.334;2022-07-01T14:02:44;16.00;99.90
10386;DHT22;34307;51.332;12.334;2022-07-01T14:05:15;15.90;99.90
10386;DHT22;34307;51.332;12.334;2022-07-01T14:07:46;16.10;99.90
10386;DHT22;34307;51.332;12.334;2022-07-01T14:10:22;16.10;99.90
10386;DHT22;34307;51.332;12.334;2022-07-01T14:12:52;16.10;99.90
10386;DHT22;34307;51.332;12.334;2022-07-01T14:15:23;16.30;99.90
10386;DHT22;34307;51.332;12.334;2022-07-01T14:17:51;16.20;99.90
10386;DHT22;34307;51.332;12.334;2022-07-01T14:20:20;16.20;99.90
10386;DHT22;34307;51.332;12.334;2022-07-01T14:22:48;16.30;99.90
10386;DHT22;34307;51.332;12.334;2022-07-01T14:25:16;16.20;99.90
10386;DHT22;34307;51.332;12.334;2022-07-01T14:27:51;16.10;99.90
10386;DHT22;34307;51.332;12.334;2022-07-01T14:30:19;16.20;99.90
10386;DHT22;34307;51.332;12.334;2022-07-01T14:32:47;16.10;99.90
10386;DHT22;34307;51.332;12.334;2022-07-01T14:35:16;16.20;99.90
10386;DHT22;34307;51.332;12.334;2022-07-01T14:37:45;16.20;99.90
10386;DHT22;34307;51.332;12.334;2022-07-01T14:40:13;16.20;99.90
10386;DHT22;34307;51.332;12.334;2022-07-01T14:42:41;16.40;99.90
10386;DHT22;34307;51.332;12.334;2022-07-01T14:45:11;16.40;99.90
10386;DHT22;34307;51.332;12.334;2022-07-01T14:47:58;16.40;99.90
10386;DHT22;34307;51.332;12.334;2022-07-01T14:50:26;16.20;99.90
10386;DHT22;34307;51.332;12.334;2022-07-01T14:52:55;16.20;99.90
10386;DHT22;34307;51.332;12.334;2022-07-01T14:55:23;16.30;99.90
10386;DHT22;34307;51.332;12.334;2022-07-01T14:57:57;16.40;99.90
10386;DHT22;34307;51.332;12.334;2022-07-01T15:00:34;16.60;99.90
10386;DHT22;34307;51.332;12.334;2022-07-01T15:03:20;16.70;99.90
10386;DHT22;34307;51.332;12.334;2022-07-01T15:05:50;16.70;99.90
10386;DHT22;34307;51.332;12.334;2022-07-01T15:08:20;16.70;99.90
10386;DHT22;34307;51.332;12.334;2022-07-01T15:10:57;16.90;99.90
10386;DHT22;34307;51.332;12.334;2022-07-01T15:13:45;16.90;99.90
10386;DHT22;34307;51.332;12.334;2022-07-01T15:16:27;16.80;99.90
10386;DHT22;34307;51.332;12.334;2022-07-01T15:19:04;16.90;99.90
10386;DHT22;34307;51.332;12.334;2022-07-01T15:21:43;16.80;99.90
10386;DHT22;34307;51.332;12.334;2022-07-01T15:24:33;16.70;99.90
10386;DHT22;34307;51.332;12.334;2022-07-01T15:27:06;16.80;99.90
10386;DHT22;34307;51.332;12.334;2022-07-01T15:29:37;16.80;99.90
10386;DHT22;34307;51.332;12.334;2022-07-01T15:32:13;16.80;99.90
10386;DHT22;34307;51.332;12.334;2022-07-01T15:34:46;16.80;99.90
10386;DHT22;34307;51.332;12.334;2022-07-01T15:37:25;16.80;99.90
10386;DHT22;34307;51.332;12.334;2022-07-01T15:39:56;16.80;99.90
10386;DHT22;34307;51.332;12.334;2022-07-01T15:42:29;16.80;99.90
10386;DHT22;34307;51.332;12.334;2022-07-01T15:45:03;16.70;99.90
10386;DHT22;34307;51.332;12.334;2022-07-01T15:47:32;16.80;99.90
10386;DHT22;34307;51.332;12.334;2022-07-01T15:50:18;16.70;99.90
10386;DHT22;34307;51.332;12.334;2022-07-01T15:52:47;16.70;99.90
10386;DHT22;34307;51.332;12.334;2022-07-01T15:55:22;16.70;99.90
10386;DHT22;34307;51.332;12.334;2022-07-01T15:57:54;16.80;99.90
10386;DHT22;34307;51.332;12.334;2022-07-01T16:00:24;16.70;99.90
10386;DHT22;34307;51.332;12.334;2022-07-01T16:02:54;16.80;99.90
10386;DHT22;34307;51.332;12.334;2022-07-01T16:05:32;16.60;99.90
10386;DHT22;34307;51.332;12.334;2022-07-01T16:08:08;16.70;99.90
10386;DHT22;34307;51.332;12.334;2022-07-01T16:10:44;16.70;99.90
10386;DHT22;34307;51.332;12.334;2022-07-01T16:13:17;16.70;99.90
10386;DHT22;34307;51.332;12.334;2022-07-01T16:15:50;16.60;99.90
10386;DHT22;34307;51.332;12.334;2022-07-01T16:18:28;16.60;99.90
10386;DHT22;34307;51.332;12.334;2022-07-01T16:21:00;16.50;99.90
10386;DHT22;34307;51.332;12.334;2022-07-01T16:23:34;16.50;99.90
10386;DHT22;34307;51.332;12.334;2022-07-01T16:26:08;16.50;99.90
10386;DHT22;34307;51.332;12.334;2022-07-01T16:28:39;16.50;99.90
10386;DHT22;34307;51.332;12.334;2022-07-01T16:31:09;16.50;99.90
10386;DHT22;34307;51.332;12.334;2022-07-01T16:33:45;16.40;99.90
10386;DHT22;34307;51.332;12.334;2022-07-01T16:36:21;16.40;99.90
10386;DHT22;34307;51.332;12.334;2022-07-01T16:39:00;16.50;99.90
10386;DHT22;34307;51.332;12.334;2022-07-01T16:41:39;16.40;99.90
10386;DHT22;34307;51.332;12.334;2022-07-01T16:44:37;16.30;99.90
10386;DHT22;34307;51.332;12.334;2022-07-01T16:47:20;16.30;99.90
10386;DHT22;34307;51.332;12.334;2022-07-01T16:50:02;16.30;99.90